Glenwillard, PA (15046)

3:33 AM EDT on August 26, 2016 (GMT -0400)
Quaker Heights | | Change Station

Elev 1138 ft 40.57 °N, 80.21 °W | Updated 13 minutes ago

Scattered Clouds
Scattered Clouds
73.2 °F
Feels Like 70 °F
N
0.0
Wind Variable Wind from ESE

Today
High -- | Low -- °F
--% Chance of Precip.
Yesterday
High -- | Low -- °F
Precip. -- in
Pressure 30.08 in
Visibility 10.0 miles
Clouds Scattered Clouds 4500 ft
Heat Index 70 °F
Dew Point 71 °F
Humidity 93%
Rainfall 0.02 in
Snow Depth Not available.
6:42 AM 8:01 PM
Last Quarter, 37% visible
METAR KPIT 260651Z 24005KT 10SM SCT045 24/22 A3009 RMK AO2 SLP186 T02390217
Pressure 30.08 in
Visibility 10.0 miles
Clouds Scattered Clouds 4500 ft
Heat Index 70 °F
Dew Point 71 °F
Humidity 93%
Rainfall 0.02 in
Snow Depth Not available.
6:42 AM 8:01 PM
Last Quarter, 37% visible
METAR KPIT 260651Z 24005KT 10SM SCT045 24/22 A3009 RMK AO2 SLP186 T02390217

10-Day Weather Forecast

Almanac

Astronomy

Aug. 26, 2016 Rise Set
Actual Time
Civil Twilight
Nautical Twilight
Astronomical Twilight
Moon
Length of Visible Light
Length of Day
Tomorrow will be .
, % of the Moon is Illuminated

Today's Extremes

State Highs State Lows

Community

WunderPhotos

Upload Photos

1,935,062 photos uploaded!

WunderBlog® & News

Nearby

Air Quality

  Air Quality AQ Index Pollutant
Not available.

Snow Depth

Station Depth Elevation

Earthquake Activity

City Distance Mag. Time & Date
Minimum magnitude displayed is 2.5.

Coastal Water Temperatures

Place Temperature

Stations

Nearby Weather Stations

Station Location Temp. Windchill Dew Point Humidity Wind Precip. Elev Updated Type
                   

Watches & Warnings

There are currently no watches in effect.